Megalochari Vii — SVA7807 — position and weather

sailwx.info

Track history (hours):
 
Tides and Currents Weather Stations Pressure Air Temp Water Temp Dewpoint Dewpoint Depression Visibility Wind Speed Wind Dir Waves Ship Positions

Megalochari Vii

Last reported at 2018-Feb-20 00:00 UTC. Time now 2018-Feb-20 00:17 UTC.
Position N 37°58' E 023°25'.

MMSI: 241527000.

Date/timePositionNaut miles runAvg speedWind from/ knotsBaromVisibWave heightAir tempDewpointWater temp
2018-Feb-20 00:00N 37°58' E 023°25'2 4.0
2018-Feb-19 23:31N 37°58' E 023°23'0 0.9
2018-Feb-19 23:00N 37°58' E 023°23'1 1.8
2018-Feb-19 22:30N 37°57' E 023°23'1 2.9
2018-Feb-19 22:01N 37°58' E 023°24'4 8.2
2018-Feb-19 21:31N 37°54' E 023°23'4 8.5
2018-Feb-19 21:00N 37°52' E 023°28'5 9.2
2018-Feb-19 20:30N 37°54' E 023°33'4 8.1
2018-Feb-19 20:00N 37°57' E 023°36'0 0.0
2018-Feb-19 19:30N 37°57' E 023°36'0 0.0
2018-Feb-19 19:00N 37°57' E 023°36'0 0.0
2018-Feb-19 11:58N 37°57' E 023°36'0 0.0
2018-Feb-19 11:30N 37°57' E 023°36'0 0.0
2018-Feb-19 11:00N 37°57' E 023°36'0 0.2
2018-Feb-19 10:30N 37°57' E 023°36'1 1.8
2018-Feb-19 10:00N 37°57' E 023°35'2 3.0
2018-Feb-19 09:30N 37°56' E 023°36'2 4.4
2018-Feb-19 09:00N 37°57' E 023°34'4 8.0
2018-Feb-19 08:30N 38°01' E 023°32'2 3.0
2018-Feb-19 08:00N 38°02' E 023°32'0 0.3
2018-Feb-19 07:30N 38°02' E 023°32'0 0.0
2018-Feb-19 07:00N 38°02' E 023°32'0 0.0
2018-Feb-19 06:30N 38°02' E 023°32'3 5.8
2018-Feb-19 06:00N 37°60' E 023°33'3 5.9
2018-Feb-19 05:30N 37°57' E 023°35'1 2.2
2018-Feb-19 05:00N 37°57' E 023°36'0 0.0
2018-Feb-19 04:30N 37°57' E 023°36'0 0.0
2018-Feb-17 11:29N 37°57' E 023°36'0 0.0
2018-Feb-17 11:00N 37°57' E 023°36'0 0.0
2018-Feb-17 10:30N 37°57' E 023°36'0 0.1
2018-Feb-17 10:00N 37°57' E 023°36'1 1.2
2018-Feb-17 09:30N 37°57' E 023°36'1 2.8
2018-Feb-17 09:01N 37°56' E 023°36'1 2.1
2018-Feb-17 08:30N 37°57' E 023°36'0 0.0
2018-Feb-17 08:01N 37°57' E 023°36'0 0.0
2018-Feb-17 07:31N 37°57' E 023°36'0 0.0
2018-Feb-17 07:00N 37°57' E 023°36'0 0.0
2018-Feb-17 06:30N 37°57' E 023°36'0 0.7
2018-Feb-17 06:00N 37°57' E 023°36'0 0.0
2018-Feb-17 05:31N 37°57' E 023°36'0 0.0
2018-Feb-17 04:59N 37°57' E 023°36'1 1.7
2018-Feb-17 04:31N 37°57' E 023°35'1 0.1
2018-Feb-16 19:09N 37°57' E 023°36'1 6.9
2018-Feb-16 19:01N 37°57' E 023°35'4 7.1
2018-Feb-16 18:31N 38°00' E 023°33'2 4.3
2018-Feb-16 18:00N 38°01' E 023°36'0 0.2
2018-Feb-16 17:29N 38°01' E 023°36'0 0.0
2018-Feb-16 17:00N 38°01' E 023°35'0 0.0
2018-Feb-16 16:31N 38°01' E 023°36'0 0.0
2018-Feb-16 16:00N 38°01' E 023°35'0 0.1
2018-Feb-16 15:30N 38°02' E 023°36'0 0.2
2018-Feb-16 15:00N 38°01' E 023°35'0 0.4
2018-Feb-16 14:30N 38°02' E 023°36'0 0.3
2018-Feb-16 14:00N 38°01' E 023°36'0 0.0
2018-Feb-16 13:30N 38°01' E 023°36'0 0.0
2018-Feb-16 13:00N 38°01' E 023°36'0 0.0
2018-Feb-16 12:30N 38°01' E 023°36'0 0.0
2018-Feb-16 12:01N 38°01' E 023°36'0 0.0
2018-Feb-16 11:30N 38°01' E 023°36'0 0.0
2018-Feb-16 11:00N 38°01' E 023°36'0 0.0
2018-Feb-16 10:30N 38°01' E 023°36'0 0.0
2018-Feb-16 09:59N 38°01' E 023°36'0 0.0
2018-Feb-16 09:30N 38°01' E 023°36'0 0.0
2018-Feb-16 09:00N 38°01' E 023°36'0 0.0
2018-Feb-16 08:30N 38°01' E 023°36'0 0.0
2018-Feb-16 08:00N 38°01' E 023°36'0 0.0
2018-Feb-16 07:30N 38°01' E 023°36'0 0.0
2018-Feb-16 07:00N 38°01' E 023°36'0 0.0
2018-Feb-16 06:30N 38°01' E 023°36'0 0.0
2018-Feb-16 06:00N 38°01' E 023°36'0 0.0
2018-Feb-16 05:30N 38°01' E 023°36'0 0.0
2018-Feb-16 05:00N 38°01' E 023°36'0 0.0
2018-Feb-16 04:30N 38°01' E 023°36'0 0.0
2018-Feb-16 04:00N 38°01' E 023°36'0 0.0
2018-Feb-16 03:31N 38°01' E 023°36'0 0.0
2018-Feb-16 03:00N 38°01' E 023°36'0 0.0
2018-Feb-16 02:30N 38°01' E 023°36'0 0.0
2018-Feb-16 02:00N 38°01' E 023°36'0 0.0
2018-Feb-16 01:30N 38°01' E 023°36'0 0.0
2018-Feb-16 01:00N 38°01' E 023°36'0 0.0
2018-Feb-16 00:30N 38°01' E 023°36'0 0.0
2018-Feb-16 00:00N 38°01' E 023°36'0 0.1
2018-Feb-15 23:30N 38°01' E 023°36'0 0.1
2018-Feb-15 23:00N 38°01' E 023°36'0 0.0
2018-Feb-15 22:30N 38°01' E 023°36'0 0.0
2018-Feb-15 22:00N 38°01' E 023°36'0 0.0
2018-Feb-15 21:30N 38°01' E 023°36'0 0.0
2018-Feb-15 21:00N 38°01' E 023°36'0 0.0
2018-Feb-15 20:30N 38°01' E 023°36'0 0.0
2018-Feb-15 20:00N 38°01' E 023°36'0 0.0
2018-Feb-15 19:30N 38°01' E 023°36'0 0.0
2018-Feb-15 19:00N 38°01' E 023°36'3 5.9
2018-Feb-15 18:30N 37°59' E 023°33'3 6.6
2018-Feb-15 18:00N 37°57' E 023°36'0 0.5
2018-Feb-15 17:31N 37°57' E 023°36'0 0.0
2018-Feb-15 17:00N 37°57' E 023°36'0 0.0
2018-Feb-15 16:30N 37°57' E 023°36'0 0.0
2018-Feb-15 16:00N 37°57' E 023°36'0 0.0
2018-Feb-15 15:31N 37°57' E 023°36'0 0.0
2018-Feb-15 15:00N 37°57' E 023°36'0 0.0
2018-Feb-15 14:31N 37°57' E 023°36'0 0.0
2018-Feb-15 14:00N 37°57' E 023°36'0 0.0
2018-Feb-15 13:30N 37°57' E 023°36'0 0.0
2018-Feb-15 13:00N 37°57' E 023°36'0 0.0
2018-Feb-15 12:28N 37°57' E 023°36'0 0.0
2018-Feb-15 12:00N 37°57' E 023°36'0 0.0
2018-Feb-15 11:31N 37°57' E 023°36'0 0.0
2018-Feb-15 10:59N 37°57' E 023°36'0 0.0
2018-Feb-15 10:30N 37°57' E 023°36'0 0.0
2018-Feb-15 10:00N 37°57' E 023°36'0 0.0
2018-Feb-15 09:30N 37°57' E 023°36'0 0.0
2018-Feb-15 09:00N 37°57' E 023°36'0 0.0
2018-Feb-15 08:30N 37°57' E 023°36'0 0.0
2018-Feb-15 08:01N 37°57' E 023°36'0 0.0
2018-Feb-15 07:30N 37°57' E 023°36'0 0.0
2018-Feb-15 07:00N 37°57' E 023°36'0 0.0
2018-Feb-15 06:25N 37°57' E 023°36'0 0.0
2018-Feb-15 05:47N 37°57' E 023°36'0 0.3
2018-Feb-15 05:26N 37°57' E 023°36'0 0.0
2018-Feb-14 20:08N 37°57' E 023°36'0 0.0
2018-Feb-14 16:43N 37°57' E 023°36'0 0.0
2018-Feb-14 16:24N 37°57' E 023°36'0 0.0
2018-Feb-14 15:52N 37°57' E 023°36'0 0.0
2018-Feb-14 15:30N 37°57' E 023°36'0 0.0
2018-Feb-14 15:00N 37°57' E 023°36'0 0.0
2018-Feb-14 14:30N 37°57' E 023°36'0 0.0
2018-Feb-14 14:00N 37°57' E 023°36'0 0.0
2018-Feb-14 13:30N 37°57' E 023°36'0 0.0
2018-Feb-14 13:00N 37°57' E 023°36'0 0.0
2018-Feb-14 12:31N 37°57' E 023°36'0 0.0
2018-Feb-14 12:00N 37°57' E 023°36'0 0.1
2018-Feb-14 11:30N 37°57' E 023°36'0 0.0
2018-Feb-14 11:00N 37°57' E 023°36'0 0.0
2018-Feb-14 10:30N 37°57' E 023°36'0 0.0
2018-Feb-14 10:00N 37°57' E 023°36'0 0.0
2018-Feb-14 09:30N 37°57' E 023°36'0 0.0
2018-Feb-14 09:00N 37°57' E 023°36'0 0.0
2018-Feb-14 08:30N 37°57' E 023°36'0 0.0
2018-Feb-14 08:01N 37°57' E 023°36'0 0.0
2018-Feb-14 07:30N 37°57' E 023°36'0 0.0
2018-Feb-14 07:00N 37°57' E 023°36'0 0.0
2018-Feb-14 06:30N 37°57' E 023°36'0 0.0
2018-Feb-14 06:00N 37°57' E 023°36'0 0.0
2018-Feb-14 05:30N 37°57' E 023°36'0 0.0
2018-Feb-14 05:00N 37°57' E 023°36'0 0.0
2018-Feb-14 04:30N 37°57' E 023°36'0 0.0
2018-Feb-13 12:03N 37°57' E 023°36'0 0.1
2018-Feb-13 12:00N 37°57' E 023°36'0 0.0
2018-Feb-13 11:30N 37°57' E 023°36'0 0.0
2018-Feb-13 11:00N 37°57' E 023°36'0 0.0
2018-Feb-13 10:31N 37°57' E 023°36'0 0.0
2018-Feb-13 10:00N 37°57' E 023°36'0 0.0
2018-Feb-13 09:31N 37°57' E 023°36'0 0.0
2018-Feb-13 09:01N 37°57' E 023°36'0 0.0
2018-Feb-13 08:30N 37°57' E 023°36'0 0.0
2018-Feb-13 08:01N 37°57' E 023°36'0 0.0
2018-Feb-13 07:30N 37°57' E 023°36'0 0.0
2018-Feb-13 06:59N 37°57' E 023°36'0 0.0
2018-Feb-13 06:31N 37°57' E 023°36'0 0.0
2018-Feb-13 06:01N 37°57' E 023°36'0 0.0
2018-Feb-13 05:31N 37°57' E 023°36'0 0.0
2018-Feb-13 05:01N 37°57' E 023°36'0 0.0
2018-Feb-13 04:31N 37°57' E 023°36'0 0.0
2018-Feb-12 11:52N 37°57' E 023°36'0 0.1
2018-Feb-12 11:30N 37°57' E 023°36'0 0.0
2018-Feb-12 11:00N 37°57' E 023°36'0 0.0
2018-Feb-12 10:30N 37°57' E 023°36'0 0.0
2018-Feb-12 10:00N 37°57' E 023°36'0 0.0
2018-Feb-12 09:30N 37°57' E 023°36'0 0.0
2018-Feb-12 09:00N 37°57' E 023°36'0 0.0
2018-Feb-12 08:30N 37°57' E 023°36'0 0.0
2018-Feb-12 08:00N 37°57' E 023°36'0 0.0
2018-Feb-12 07:30N 37°57' E 023°36'0 0.0
2018-Feb-12 07:00N 37°57' E 023°36'0 0.0
2018-Feb-12 06:30N 37°57' E 023°36'0 0.0
2018-Feb-12 06:00N 37°57' E 023°36'0 0.0
2018-Feb-12 05:30N 37°57' E 023°36'0 0.0
2018-Feb-12 05:00N 37°57' E 023°36'0 0.0
2018-Feb-11 08:50N 37°57' E 023°36'1 1.7
2018-Feb-11 08:30N 37°58' E 023°37'0 0.1
2018-Feb-11 08:00N 37°58' E 023°37'0 0.0
2018-Feb-11 07:30N 37°58' E 023°37'0 0.0
2018-Feb-11 07:00N 37°58' E 023°37'0 0.0
2018-Feb-11 06:30N 37°58' E 023°37'0 0.0
2018-Feb-11 06:00N 37°58' E 023°37'0 0.0
2018-Feb-11 05:30N 37°58' E 023°37'0 0.1
2018-Feb-11 05:00N 37°58' E 023°37'0 0.2
2018-Feb-11 04:30N 37°57' E 023°37'0 0.2
2018-Feb-11 04:00N 37°58' E 023°37'0 0.0
2018-Feb-11 03:30N 37°58' E 023°37'0 0.0
2018-Feb-11 03:00N 37°58' E 023°37'0 0.0
2018-Feb-11 02:30N 37°58' E 023°37'0 0.0
2018-Feb-11 02:00N 37°58' E 023°37'0 0.0
2018-Feb-11 01:29N 37°58' E 023°37'0 0.0
2018-Feb-11 01:00N 37°58' E 023°37'0 0.0
2018-Feb-11 00:30N 37°58' E 023°37'0 0.0
2018-Feb-11 00:00N 37°58' E 023°37'0 0.0
2018-Feb-10 23:30N 37°58' E 023°37'0 0.0
2018-Feb-10 23:00N 37°58' E 023°37'0 0.0
2018-Feb-10 22:29N 37°58' E 023°37'0 0.0
2018-Feb-10 22:00N 37°58' E 023°37'0 0.0
2018-Feb-10 21:30N 37°58' E 023°37'0 0.0
2018-Feb-10 21:00N 37°58' E 023°37'0 0.0
2018-Feb-10 20:30N 37°58' E 023°37'0 0.0
2018-Feb-10 20:00N 37°58' E 023°37'0 0.0
2018-Feb-10 19:30N 37°58' E 023°37'0 0.0
2018-Feb-10 19:00N 37°58' E 023°37'0 0.0
2018-Feb-10 18:30N 37°58' E 023°37'0 0.0
2018-Feb-10 18:00N 37°58' E 023°37'1 1.1
2018-Feb-10 17:30N 37°57' E 023°36'0 0.0
2018-Feb-10 17:00N 37°57' E 023°36'0 0.0
2018-Feb-10 16:29N 37°57' E 023°36'0 0.0
2018-Feb-10 16:00N 37°57' E 023°36'0 0.0
2018-Feb-10 15:30N 37°57' E 023°36'0 0.0
2018-Feb-10 15:00N 37°57' E 023°36'0 0.0
2018-Feb-10 14:30N 37°57' E 023°36'0 0.0
2018-Feb-10 14:00N 37°57' E 023°36'0 0.0
2018-Feb-10 13:30N 37°57' E 023°36'0 0.0
2018-Feb-10 13:00N 37°57' E 023°36'0 0.0
2018-Feb-10 12:30N 37°57' E 023°36'0 0.0
2018-Feb-10 12:00N 37°57' E 023°36'0 0.0
2018-Feb-10 11:30N 37°57' E 023°36'0 0.0
2018-Feb-10 10:58N 37°57' E 023°36'0 0.0
2018-Feb-10 10:30N 37°57' E 023°36'0 0.0
2018-Feb-10 10:00N 37°57' E 023°36'0 0.0
2018-Feb-10 09:30N 37°57' E 023°36'0 0.0
2018-Feb-10 09:00N 37°57' E 023°36'0 0.0
2018-Feb-10 08:30N 37°57' E 023°36'0 0.0
2018-Feb-10 08:00N 37°57' E 023°36'0 0.0
2018-Feb-10 07:30N 37°57' E 023°36'0 0.0
2018-Feb-10 07:00N 37°57' E 023°36'0 0.0
2018-Feb-10 06:29N 37°57' E 023°36'0 0.0
2018-Feb-10 06:00N 37°57' E 023°36'0 0.0
2018-Feb-10 05:30N 37°57' E 023°36'1 1.7
2018-Feb-10 05:00N 37°57' E 023°35'1 1.8
2018-Feb-10 04:30N 37°57' E 023°36'  
Track history (hours):
 
Tides and Currents Weather Stations Pressure Air Temp Water Temp Dewpoint Dewpoint Depression Visibility Wind Speed Wind Dir Waves Ship Positions

Megalochari Vii

Last reported at 2018-Feb-20 00:00 UTC. Time now 2018-Feb-20 00:17 UTC.
Position N 37°58' E 023°25'.

MMSI: 241527000.

Date/timePositionNaut miles runAvg speedWind from/ knotsBaromVisibWave heightAir tempDewpointWater temp
2018-Feb-20 00:00N 37°58' E 023°25'2 4.0
2018-Feb-19 23:31N 37°58' E 023°23'0 0.9
2018-Feb-19 23:00N 37°58' E 023°23'1 1.8
2018-Feb-19 22:30N 37°57' E 023°23'1 2.9
2018-Feb-19 22:01N 37°58' E 023°24'4 8.2
2018-Feb-19 21:31N 37°54' E 023°23'4 8.5
2018-Feb-19 21:00N 37°52' E 023°28'5 9.2
2018-Feb-19 20:30N 37°54' E 023°33'4 8.1
2018-Feb-19 20:00N 37°57' E 023°36'0 0.0
2018-Feb-19 19:30N 37°57' E 023°36'0 0.0
2018-Feb-19 19:00N 37°57' E 023°36'0 0.0
2018-Feb-19 11:58N 37°57' E 023°36'0 0.0
2018-Feb-19 11:30N 37°57' E 023°36'0 0.0
2018-Feb-19 11:00N 37°57' E 023°36'0 0.2
2018-Feb-19 10:30N 37°57' E 023°36'1 1.8
2018-Feb-19 10:00N 37°57' E 023°35'2 3.0
2018-Feb-19 09:30N 37°56' E 023°36'2 4.4
2018-Feb-19 09:00N 37°57' E 023°34'4 8.0
2018-Feb-19 08:30N 38°01' E 023°32'2 3.0
2018-Feb-19 08:00N 38°02' E 023°32'0 0.3
2018-Feb-19 07:30N 38°02' E 023°32'0 0.0
2018-Feb-19 07:00N 38°02' E 023°32'0 0.0
2018-Feb-19 06:30N 38°02' E 023°32'3 5.8
2018-Feb-19 06:00N 37°60' E 023°33'3 5.9
2018-Feb-19 05:30N 37°57' E 023°35'1 2.2
2018-Feb-19 05:00N 37°57' E 023°36'0 0.0
2018-Feb-19 04:30N 37°57' E 023°36'0 0.0
2018-Feb-17 11:29N 37°57' E 023°36'0 0.0
2018-Feb-17 11:00N 37°57' E 023°36'0 0.0
2018-Feb-17 10:30N 37°57' E 023°36'0 0.1
2018-Feb-17 10:00N 37°57' E 023°36'1 1.2
2018-Feb-17 09:30N 37°57' E 023°36'1 2.8
2018-Feb-17 09:01N 37°56' E 023°36'1 2.1
2018-Feb-17 08:30N 37°57' E 023°36'0 0.0
2018-Feb-17 08:01N 37°57' E 023°36'0 0.0
2018-Feb-17 07:31N 37°57' E 023°36'0 0.0
2018-Feb-17 07:00N 37°57' E 023°36'0 0.0
2018-Feb-17 06:30N 37°57' E 023°36'0 0.7
2018-Feb-17 06:00N 37°57' E 023°36'0 0.0
2018-Feb-17 05:31N 37°57' E 023°36'0 0.0
2018-Feb-17 04:59N 37°57' E 023°36'1 1.7
2018-Feb-17 04:31N 37°57' E 023°35'1 0.1
2018-Feb-16 19:09N 37°57' E 023°36'1 6.9
2018-Feb-16 19:01N 37°57' E 023°35'4 7.1
2018-Feb-16 18:31N 38°00' E 023°33'2 4.3
2018-Feb-16 18:00N 38°01' E 023°36'0 0.2
2018-Feb-16 17:29N 38°01' E 023°36'0 0.0
2018-Feb-16 17:00N 38°01' E 023°35'0 0.0
2018-Feb-16 16:31N 38°01' E 023°36'0 0.0
2018-Feb-16 16:00N 38°01' E 023°35'0 0.1
2018-Feb-16 15:30N 38°02' E 023°36'0 0.2
2018-Feb-16 15:00N 38°01' E 023°35'0 0.4
2018-Feb-16 14:30N 38°02' E 023°36'0 0.3
2018-Feb-16 14:00N 38°01' E 023°36'0 0.0
2018-Feb-16 13:30N 38°01' E 023°36'0 0.0
2018-Feb-16 13:00N 38°01' E 023°36'0 0.0
2018-Feb-16 12:30N 38°01' E 023°36'0 0.0
2018-Feb-16 12:01N 38°01' E 023°36'0 0.0
2018-Feb-16 11:30N 38°01' E 023°36'0 0.0
2018-Feb-16 11:00N 38°01' E 023°36'0 0.0
2018-Feb-16 10:30N 38°01' E 023°36'0 0.0
2018-Feb-16 09:59N 38°01' E 023°36'0 0.0
2018-Feb-16 09:30N 38°01' E 023°36'0 0.0
2018-Feb-16 09:00N 38°01' E 023°36'0 0.0
2018-Feb-16 08:30N 38°01' E 023°36'0 0.0
2018-Feb-16 08:00N 38°01' E 023°36'0 0.0
2018-Feb-16 07:30N 38°01' E 023°36'0 0.0
2018-Feb-16 07:00N 38°01' E 023°36'0 0.0
2018-Feb-16 06:30N 38°01' E 023°36'0 0.0
2018-Feb-16 06:00N 38°01' E 023°36'0 0.0
2018-Feb-16 05:30N 38°01' E 023°36'0 0.0
2018-Feb-16 05:00N 38°01' E 023°36'0 0.0
2018-Feb-16 04:30N 38°01' E 023°36'0 0.0
2018-Feb-16 04:00N 38°01' E 023°36'0 0.0
2018-Feb-16 03:31N 38°01' E 023°36'0 0.0
2018-Feb-16 03:00N 38°01' E 023°36'0 0.0
2018-Feb-16 02:30N 38°01' E 023°36'0 0.0
2018-Feb-16 02:00N 38°01' E 023°36'0 0.0
2018-Feb-16 01:30N 38°01' E 023°36'0 0.0
2018-Feb-16 01:00N 38°01' E 023°36'0 0.0
2018-Feb-16 00:30N 38°01' E 023°36'0 0.0
2018-Feb-16 00:00N 38°01' E 023°36'0 0.1
2018-Feb-15 23:30N 38°01' E 023°36'0 0.1
2018-Feb-15 23:00N 38°01' E 023°36'0 0.0
2018-Feb-15 22:30N 38°01' E 023°36'0 0.0
2018-Feb-15 22:00N 38°01' E 023°36'0 0.0
2018-Feb-15 21:30N 38°01' E 023°36'0 0.0
2018-Feb-15 21:00N 38°01' E 023°36'0 0.0
2018-Feb-15 20:30N 38°01' E 023°36'0 0.0
2018-Feb-15 20:00N 38°01' E 023°36'0 0.0
2018-Feb-15 19:30N 38°01' E 023°36'0 0.0
2018-Feb-15 19:00N 38°01' E 023°36'3 5.9
2018-Feb-15 18:30N 37°59' E 023°33'3 6.6
2018-Feb-15 18:00N 37°57' E 023°36'0 0.5
2018-Feb-15 17:31N 37°57' E 023°36'0 0.0
2018-Feb-15 17:00N 37°57' E 023°36'0 0.0
2018-Feb-15 16:30N 37°57' E 023°36'0 0.0
2018-Feb-15 16:00N 37°57' E 023°36'0 0.0
2018-Feb-15 15:31N 37°57' E 023°36'0 0.0
2018-Feb-15 15:00N 37°57' E 023°36'0 0.0
2018-Feb-15 14:31N 37°57' E 023°36'0 0.0
2018-Feb-15 14:00N 37°57' E 023°36'0 0.0
2018-Feb-15 13:30N 37°57' E 023°36'0 0.0
2018-Feb-15 13:00N 37°57' E 023°36'0 0.0
2018-Feb-15 12:28N 37°57' E 023°36'0 0.0
2018-Feb-15 12:00N 37°57' E 023°36'0 0.0
2018-Feb-15 11:31N 37°57' E 023°36'0 0.0
2018-Feb-15 10:59N 37°57' E 023°36'0 0.0
2018-Feb-15 10:30N 37°57' E 023°36'0 0.0
2018-Feb-15 10:00N 37°57' E 023°36'0 0.0
2018-Feb-15 09:30N 37°57' E 023°36'0 0.0
2018-Feb-15 09:00N 37°57' E 023°36'0 0.0
2018-Feb-15 08:30N 37°57' E 023°36'0 0.0
2018-Feb-15 08:01N 37°57' E 023°36'0 0.0
2018-Feb-15 07:30N 37°57' E 023°36'0 0.0
2018-Feb-15 07:00N 37°57' E 023°36'0 0.0
2018-Feb-15 06:25N 37°57' E 023°36'0 0.0
2018-Feb-15 05:47N 37°57' E 023°36'0 0.3
2018-Feb-15 05:26N 37°57' E 023°36'0 0.0
2018-Feb-14 20:08N 37°57' E 023°36'0 0.0
2018-Feb-14 16:43N 37°57' E 023°36'0 0.0
2018-Feb-14 16:24N 37°57' E 023°36'0 0.0
2018-Feb-14 15:52N 37°57' E 023°36'0 0.0
2018-Feb-14 15:30N 37°57' E 023°36'0 0.0
2018-Feb-14 15:00N 37°57' E 023°36'0 0.0
2018-Feb-14 14:30N 37°57' E 023°36'0 0.0
2018-Feb-14 14:00N 37°57' E 023°36'0 0.0
2018-Feb-14 13:30N 37°57' E 023°36'0 0.0
2018-Feb-14 13:00N 37°57' E 023°36'0 0.0
2018-Feb-14 12:31N 37°57' E 023°36'0 0.0
2018-Feb-14 12:00N 37°57' E 023°36'0 0.1
2018-Feb-14 11:30N 37°57' E 023°36'0 0.0
2018-Feb-14 11:00N 37°57' E 023°36'0 0.0
2018-Feb-14 10:30N 37°57' E 023°36'0 0.0
2018-Feb-14 10:00N 37°57' E 023°36'0 0.0
2018-Feb-14 09:30N 37°57' E 023°36'0 0.0
2018-Feb-14 09:00N 37°57' E 023°36'0 0.0
2018-Feb-14 08:30N 37°57' E 023°36'0 0.0
2018-Feb-14 08:01N 37°57' E 023°36'0 0.0
2018-Feb-14 07:30N 37°57' E 023°36'0 0.0
2018-Feb-14 07:00N 37°57' E 023°36'0 0.0
2018-Feb-14 06:30N 37°57' E 023°36'0 0.0
2018-Feb-14 06:00N 37°57' E 023°36'0 0.0
2018-Feb-14 05:30N 37°57' E 023°36'0 0.0
2018-Feb-14 05:00N 37°57' E 023°36'0 0.0
2018-Feb-14 04:30N 37°57' E 023°36'0 0.0
2018-Feb-13 12:03N 37°57' E 023°36'0 0.1
2018-Feb-13 12:00N 37°57' E 023°36'0 0.0
2018-Feb-13 11:30N 37°57' E 023°36'0 0.0
2018-Feb-13 11:00N 37°57' E 023°36'0 0.0
2018-Feb-13 10:31N 37°57' E 023°36'0 0.0
2018-Feb-13 10:00N 37°57' E 023°36'0 0.0
2018-Feb-13 09:31N 37°57' E 023°36'0 0.0
2018-Feb-13 09:01N 37°57' E 023°36'0 0.0
2018-Feb-13 08:30N 37°57' E 023°36'0 0.0
2018-Feb-13 08:01N 37°57' E 023°36'0 0.0
2018-Feb-13 07:30N 37°57' E 023°36'0 0.0
2018-Feb-13 06:59N 37°57' E 023°36'0 0.0
2018-Feb-13 06:31N 37°57' E 023°36'0 0.0
2018-Feb-13 06:01N 37°57' E 023°36'0 0.0
2018-Feb-13 05:31N 37°57' E 023°36'0 0.0
2018-Feb-13 05:01N 37°57' E 023°36'0 0.0
2018-Feb-13 04:31N 37°57' E 023°36'0 0.0
2018-Feb-12 11:52N 37°57' E 023°36'0 0.1
2018-Feb-12 11:30N 37°57' E 023°36'0 0.0
2018-Feb-12 11:00N 37°57' E 023°36'0 0.0
2018-Feb-12 10:30N 37°57' E 023°36'0 0.0
2018-Feb-12 10:00N 37°57' E 023°36'0 0.0
2018-Feb-12 09:30N 37°57' E 023°36'0 0.0
2018-Feb-12 09:00N 37°57' E 023°36'0 0.0
2018-Feb-12 08:30N 37°57' E 023°36'0 0.0
2018-Feb-12 08:00N 37°57' E 023°36'0 0.0
2018-Feb-12 07:30N 37°57' E 023°36'0 0.0
2018-Feb-12 07:00N 37°57' E 023°36'0 0.0
2018-Feb-12 06:30N 37°57' E 023°36'0 0.0
2018-Feb-12 06:00N 37°57' E 023°36'0 0.0
2018-Feb-12 05:30N 37°57' E 023°36'0 0.0
2018-Feb-12 05:00N 37°57' E 023°36'0 0.0
2018-Feb-11 08:50N 37°57' E 023°36'1 1.7
2018-Feb-11 08:30N 37°58' E 023°37'0 0.1
2018-Feb-11 08:00N 37°58' E 023°37'0 0.0
2018-Feb-11 07:30N 37°58' E 023°37'0 0.0
2018-Feb-11 07:00N 37°58' E 023°37'0 0.0
2018-Feb-11 06:30N 37°58' E 023°37'0 0.0
2018-Feb-11 06:00N 37°58' E 023°37'0 0.0
2018-Feb-11 05:30N 37°58' E 023°37'0 0.1
2018-Feb-11 05:00N 37°58' E 023°37'0 0.2
2018-Feb-11 04:30N 37°57' E 023°37'0 0.2
2018-Feb-11 04:00N 37°58' E 023°37'0 0.0
2018-Feb-11 03:30N 37°58' E 023°37'0 0.0
2018-Feb-11 03:00N 37°58' E 023°37'0 0.0
2018-Feb-11 02:30N 37°58' E 023°37'0 0.0
2018-Feb-11 02:00N 37°58' E 023°37'0 0.0
2018-Feb-11 01:29N 37°58' E 023°37'0 0.0
2018-Feb-11 01:00N 37°58' E 023°37'0 0.0
2018-Feb-11 00:30N 37°58' E 023°37'0 0.0
2018-Feb-11 00:00N 37°58' E 023°37'0 0.0
2018-Feb-10 23:30N 37°58' E 023°37'0 0.0
2018-Feb-10 23:00N 37°58' E 023°37'0 0.0
2018-Feb-10 22:29N 37°58' E 023°37'0 0.0
2018-Feb-10 22:00N 37°58' E 023°37'0 0.0
2018-Feb-10 21:30N 37°58' E 023°37'0 0.0
2018-Feb-10 21:00N 37°58' E 023°37'0 0.0
2018-Feb-10 20:30N 37°58' E 023°37'0 0.0
2018-Feb-10 20:00N 37°58' E 023°37'0 0.0
2018-Feb-10 19:30N 37°58' E 023°37'0 0.0
2018-Feb-10 19:00N 37°58' E 023°37'0 0.0
2018-Feb-10 18:30N 37°58' E 023°37'0 0.0
2018-Feb-10 18:00N 37°58' E 023°37'1 1.1
2018-Feb-10 17:30N 37°57' E 023°36'0 0.0
2018-Feb-10 17:00N 37°57' E 023°36'0 0.0
2018-Feb-10 16:29N 37°57' E 023°36'0 0.0
2018-Feb-10 16:00N 37°57' E 023°36'0 0.0
2018-Feb-10 15:30N 37°57' E 023°36'0 0.0
2018-Feb-10 15:00N 37°57' E 023°36'0 0.0
2018-Feb-10 14:30N 37°57' E 023°36'0 0.0
2018-Feb-10 14:00N 37°57' E 023°36'0 0.0
2018-Feb-10 13:30N 37°57' E 023°36'0 0.0
2018-Feb-10 13:00N 37°57' E 023°36'0 0.0
2018-Feb-10 12:30N 37°57' E 023°36'0 0.0
2018-Feb-10 12:00N 37°57' E 023°36'0 0.0
2018-Feb-10 11:30N 37°57' E 023°36'0 0.0
2018-Feb-10 10:58N 37°57' E 023°36'0 0.0
2018-Feb-10 10:30N 37°57' E 023°36'0 0.0
2018-Feb-10 10:00N 37°57' E 023°36'0 0.0
2018-Feb-10 09:30N 37°57' E 023°36'0 0.0
2018-Feb-10 09:00N 37°57' E 023°36'0 0.0
2018-Feb-10 08:30N 37°57' E 023°36'0 0.0
2018-Feb-10 08:00N 37°57' E 023°36'0 0.0
2018-Feb-10 07:30N 37°57' E 023°36'0 0.0
2018-Feb-10 07:00N 37°57' E 023°36'0 0.0
2018-Feb-10 06:29N 37°57' E 023°36'0 0.0
2018-Feb-10 06:00N 37°57' E 023°36'0 0.0
2018-Feb-10 05:30N 37°57' E 023°36'1 1.7
2018-Feb-10 05:00N 37°57' E 023°35'1 1.8
2018-Feb-10 04:30N 37°57' E 023°36'  

Dump ship's entire track history